sensor_id;sensor_type;location;lat;lon;timestamp;P1;durP1;ratioP1;P2;durP2;ratioP2
72085;SDS011;64750;52.134;5.424;2023-11-21T00:02:25;12.73;;;7.55;;
72085;SDS011;64750;52.134;5.424;2023-11-21T00:04:53;12.53;;;8.33;;
72085;SDS011;64750;52.134;5.424;2023-11-21T00:07:20;13.90;;;7.93;;
72085;SDS011;64750;52.134;5.424;2023-11-21T00:09:47;9.10;;;7.32;;
72085;SDS011;64750;52.134;5.424;2023-11-21T00:12:14;14.02;;;8.98;;
72085;SDS011;64750;52.134;5.424;2023-11-21T00:14:40;13.35;;;8.25;;
72085;SDS011;64750;52.134;5.424;2023-11-21T00:17:07;12.83;;;8.63;;
72085;SDS011;64750;52.134;5.424;2023-11-21T00:19:33;15.63;;;8.20;;
72085;SDS011;64750;52.134;5.424;2023-11-21T00:22:01;16.38;;;8.55;;
72085;SDS011;64750;52.134;5.424;2023-11-21T00:24:27;10.55;;;7.65;;
72085;SDS011;64750;52.134;5.424;2023-11-21T00:26:54;11.95;;;7.30;;
72085;SDS011;64750;52.134;5.424;2023-11-21T00:29:20;12.03;;;7.10;;
72085;SDS011;64750;52.134;5.424;2023-11-21T00:31:47;9.20;;;7.38;;
72085;SDS011;64750;52.134;5.424;2023-11-21T00:34:13;10.15;;;7.60;;
72085;SDS011;64750;52.134;5.424;2023-11-21T00:36:40;9.38;;;7.15;;
72085;SDS011;64750;52.134;5.424;2023-11-21T00:39:06;8.02;;;7.22;;
72085;SDS011;64750;52.134;5.424;2023-11-21T00:41:33;8.33;;;7.53;;
72085;SDS011;64750;52.134;5.424;2023-11-21T00:44:00;8.93;;;6.75;;
72085;SDS011;64750;52.134;5.424;2023-11-21T00:46:27;7.75;;;6.97;;
72085;SDS011;64750;52.134;5.424;2023-11-21T00:48:55;7.10;;;6.40;;
72085;SDS011;64750;52.134;5.424;2023-11-21T00:51:22;7.28;;;6.57;;
72085;SDS011;64750;52.134;5.424;2023-11-21T00:53:48;9.67;;;7.00;;
72085;SDS011;64750;52.134;5.424;2023-11-21T00:56:15;6.80;;;6.20;;
72085;SDS011;64750;52.134;5.424;2023-11-21T00:58:42;7.63;;;6.80;;
72085;SDS011;64750;52.134;5.424;2023-11-21T01:01:12;6.47;;;5.75;;
72085;SDS011;64750;52.134;5.424;2023-11-21T01:03:39;6.57;;;5.95;;
72085;SDS011;64750;52.134;5.424;2023-11-21T01:06:06;6.40;;;5.90;;
72085;SDS011;64750;52.134;5.424;2023-11-21T01:08:33;8.13;;;5.93;;
72085;SDS011;64750;52.134;5.424;2023-11-21T01:10:59;6.00;;;5.50;;
72085;SDS011;64750;52.134;5.424;2023-11-21T01:13:26;6.43;;;5.80;;
72085;SDS011;64750;52.134;5.424;2023-11-21T01:15:54;6.32;;;5.72;;
72085;SDS011;64750;52.134;5.424;2023-11-21T01:18:20;7.70;;;6.67;;
72085;SDS011;64750;52.134;5.424;2023-11-21T01:20:47;6.28;;;5.68;;
72085;SDS011;64750;52.134;5.424;2023-11-21T01:23:13;6.05;;;5.45;;
72085;SDS011;64750;52.134;5.424;2023-11-21T01:25:40;5.93;;;5.32;;
72085;SDS011;64750;52.134;5.424;2023-11-21T01:28:06;8.68;;;5.65;;
72085;SDS011;64750;52.134;5.424;2023-11-21T01:30:33;6.57;;;5.73;;
72085;SDS011;64750;52.134;5.424;2023-11-21T01:32:59;6.13;;;5.47;;
72085;SDS011;64750;52.134;5.424;2023-11-21T01:35:26;6.25;;;5.65;;
72085;SDS011;64750;52.134;5.424;2023-11-21T01:37:52;6.63;;;5.55;;
72085;SDS011;64750;52.134;5.424;2023-11-21T01:40:19;6.00;;;5.38;;
72085;SDS011;64750;52.134;5.424;2023-11-21T01:42:47;6.40;;;5.40;;
72085;SDS011;64750;52.134;5.424;2023-11-21T01:45:14;5.40;;;4.90;;
72085;SDS011;64750;52.134;5.424;2023-11-21T01:47:41;5.72;;;5.13;;
72085;SDS011;64750;52.134;5.424;2023-11-21T01:50:09;9.00;;;5.20;;
72085;SDS011;64750;52.134;5.424;2023-11-21T01:52:41;5.97;;;5.38;;
72085;SDS011;64750;52.134;5.424;2023-11-21T01:55:10;6.20;;;5.60;;
72085;SDS011;64750;52.134;5.424;2023-11-21T01:57:42;6.55;;;5.43;;
72085;SDS011;64750;52.134;5.424;2023-11-21T02:00:08;8.73;;;5.70;;
72085;SDS011;64750;52.134;5.424;2023-11-21T02:02:44;6.82;;;5.90;;
72085;SDS011;64750;52.134;5.424;2023-11-21T02:05:16;7.68;;;5.00;;
72085;SDS011;64750;52.134;5.424;2023-11-21T02:07:44;7.17;;;5.63;;
72085;SDS011;64750;52.134;5.424;2023-11-21T02:10:14;6.40;;;5.32;;
72085;SDS011;64750;52.134;5.424;2023-11-21T02:12:42;6.10;;;5.60;;
72085;SDS011;64750;52.134;5.424;2023-11-21T02:15:13;7.95;;;5.80;;
72085;SDS011;64750;52.134;5.424;2023-11-21T02:17:53;7.65;;;5.63;;
72085;SDS011;64750;52.134;5.424;2023-11-21T02:20:21;6.13;;;5.53;;
72085;SDS011;64750;52.134;5.424;2023-11-21T02:22:49;7.15;;;5.45;;
72085;SDS011;64750;52.134;5.424;2023-11-21T02:25:22;7.18;;;5.25;;
72085;SDS011;64750;52.134;5.424;2023-11-21T02:27:49;6.20;;;5.53;;
72085;SDS011;64750;52.134;5.424;2023-11-21T02:30:15;5.82;;;5.32;;
72085;SDS011;64750;52.134;5.424;2023-11-21T02:32:42;5.97;;;4.77;;
72085;SDS011;64750;52.134;5.424;2023-11-21T02:35:14;6.53;;;4.97;;
72085;SDS011;64750;52.134;5.424;2023-11-21T02:37:42;7.93;;;4.90;;
72085;SDS011;64750;52.134;5.424;2023-11-21T02:40:09;6.65;;;5.10;;
72085;SDS011;64750;52.134;5.424;2023-11-21T02:42:39;5.35;;;4.85;;
72085;SDS011;64750;52.134;5.424;2023-11-21T02:45:06;5.37;;;4.57;;
72085;SDS011;64750;52.134;5.424;2023-11-21T02:47:34;8.00;;;5.22;;
72085;SDS011;64750;52.134;5.424;2023-11-21T02:50:00;9.00;;;5.20;;
72085;SDS011;64750;52.134;5.424;2023-11-21T02:52:27;9.38;;;5.20;;
72085;SDS011;64750;52.134;5.424;2023-11-21T02:54:53;10.18;;;5.45;;
72085;SDS011;64750;52.134;5.424;2023-11-21T02:57:20;8.40;;;4.90;;
72085;SDS011;64750;52.134;5.424;2023-11-21T02:59:46;6.90;;;4.65;;
72085;SDS011;64750;52.134;5.424;2023-11-21T03:02:13;7.07;;;5.05;;
72085;SDS011;64750;52.134;5.424;2023-11-21T03:04:39;7.78;;;4.50;;
72085;SDS011;64750;52.134;5.424;2023-11-21T03:07:06;5.53;;;5.00;;
72085;SDS011;64750;52.134;5.424;2023-11-21T03:09:32;5.80;;;5.00;;
72085;SDS011;64750;52.134;5.424;2023-11-21T03:11:58;6.55;;;4.85;;
72085;SDS011;64750;52.134;5.424;2023-11-21T03:14:25;8.93;;;5.28;;
72085;SDS011;64750;52.134;5.424;2023-11-21T03:16:51;5.70;;;4.80;;
72085;SDS011;64750;52.134;5.424;2023-11-21T03:19:18;5.50;;;4.93;;
72085;SDS011;64750;52.134;5.424;2023-11-21T03:21:44;5.40;;;4.90;;
72085;SDS011;64750;52.134;5.424;2023-11-21T03:24:11;6.10;;;4.75;;
72085;SDS011;64750;52.134;5.424;2023-11-21T03:26:37;5.35;;;4.95;;
72085;SDS011;64750;52.134;5.424;2023-11-21T03:29:04;6.75;;;5.25;;
72085;SDS011;64750;52.134;5.424;2023-11-21T03:31:31;5.55;;;5.05;;
72085;SDS011;64750;52.134;5.424;2023-11-21T03:33:57;6.67;;;4.40;;
72085;SDS011;64750;52.134;5.424;2023-11-21T03:36:24;7.90;;;4.60;;
72085;SDS011;64750;52.134;5.424;2023-11-21T03:38:51;8.55;;;5.68;;
72085;SDS011;64750;52.134;5.424;2023-11-21T03:41:18;11.77;;;6.00;;
72085;SDS011;64750;52.134;5.424;2023-11-21T03:43:44;7.53;;;5.13;;
72085;SDS011;64750;52.134;5.424;2023-11-21T03:46:11;6.10;;;4.53;;
72085;SDS011;64750;52.134;5.424;2023-11-21T03:48:38;9.48;;;5.20;;
72085;SDS011;64750;52.134;5.424;2023-11-21T03:51:05;5.50;;;5.00;;
72085;SDS011;64750;52.134;5.424;2023-11-21T03:53:32;4.97;;;4.53;;
72085;SDS011;64750;52.134;5.424;2023-11-21T03:55:58;6.90;;;5.18;;
72085;SDS011;64750;52.134;5.424;2023-11-21T03:58:25;8.57;;;5.27;;
72085;SDS011;64750;52.134;5.424;2023-11-21T04:00:51;7.70;;;4.55;;
72085;SDS011;64750;52.134;5.424;2023-11-21T04:03:18;8.63;;;4.88;;
72085;SDS011;64750;52.134;5.424;2023-11-21T04:05:45;10.98;;;4.80;;
72085;SDS011;64750;52.134;5.424;2023-11-21T04:08:13;8.00;;;5.32;;
72085;SDS011;64750;52.134;5.424;2023-11-21T04:10:39;7.50;;;5.43;;
72085;SDS011;64750;52.134;5.424;2023-11-21T04:13:06;8.35;;;4.95;;
72085;SDS011;64750;52.134;5.424;2023-11-21T04:15:32;8.68;;;5.10;;
72085;SDS011;64750;52.134;5.424;2023-11-21T04:17:59;8.40;;;5.30;;
72085;SDS011;64750;52.134;5.424;2023-11-21T04:20:25;7.82;;;4.70;;
72085;SDS011;64750;52.134;5.424;2023-11-21T04:22:52;7.23;;;5.17;;
72085;SDS011;64750;52.134;5.424;2023-11-21T04:25:18;8.07;;;5.15;;
72085;SDS011;64750;52.134;5.424;2023-11-21T04:27:45;7.30;;;5.43;;
72085;SDS011;64750;52.134;5.424;2023-11-21T04:30:12;8.38;;;5.15;;
72085;SDS011;64750;52.134;5.424;2023-11-21T04:32:39;6.47;;;5.13;;
72085;SDS011;64750;52.134;5.424;2023-11-21T04:35:06;10.40;;;5.27;;
72085;SDS011;64750;52.134;5.424;2023-11-21T04:37:33;7.88;;;5.05;;
72085;SDS011;64750;52.134;5.424;2023-11-21T04:40:00;9.13;;;5.38;;
72085;SDS011;64750;52.134;5.424;2023-11-21T04:42:26;12.40;;;6.10;;
72085;SDS011;64750;52.134;5.424;2023-11-21T04:44:53;8.85;;;5.43;;
72085;SDS011;64750;52.134;5.424;2023-11-21T04:47:19;5.97;;;5.20;;
72085;SDS011;64750;52.134;5.424;2023-11-21T04:49:46;11.80;;;5.45;;
72085;SDS011;64750;52.134;5.424;2023-11-21T04:52:15;7.15;;;5.28;;
72085;SDS011;64750;52.134;5.424;2023-11-21T04:54:42;8.95;;;5.22;;
72085;SDS011;64750;52.134;5.424;2023-11-21T04:57:09;8.30;;;5.07;;
72085;SDS011;64750;52.134;5.424;2023-11-21T04:59:35;6.83;;;5.77;;
72085;SDS011;64750;52.134;5.424;2023-11-21T05:02:02;11.50;;;6.45;;
72085;SDS011;64750;52.134;5.424;2023-11-21T05:04:29;7.25;;;6.47;;
72085;SDS011;64750;52.134;5.424;2023-11-21T05:06:55;7.03;;;6.32;;
72085;SDS011;64750;52.134;5.424;2023-11-21T05:09:22;7.28;;;6.72;;
72085;SDS011;64750;52.134;5.424;2023-11-21T05:11:49;7.33;;;6.27;;
72085;SDS011;64750;52.134;5.424;2023-11-21T05:14:16;10.27;;;6.22;;
72085;SDS011;64750;52.134;5.424;2023-11-21T05:16:43;6.53;;;5.60;;
72085;SDS011;64750;52.134;5.424;2023-11-21T05:19:10;6.63;;;6.00;;
72085;SDS011;64750;52.134;5.424;2023-11-21T05:21:37;10.00;;;5.70;;
72085;SDS011;64750;52.134;5.424;2023-11-21T05:24:03;9.33;;;6.50;;
72085;SDS011;64750;52.134;5.424;2023-11-21T05:26:31;7.03;;;5.07;;
72085;SDS011;64750;52.134;5.424;2023-11-21T05:28:58;8.15;;;5.72;;
72085;SDS011;64750;52.134;5.424;2023-11-21T05:31:24;7.22;;;5.88;;
72085;SDS011;64750;52.134;5.424;2023-11-21T05:33:50;7.55;;;5.70;;
72085;SDS011;64750;52.134;5.424;2023-11-21T05:36:17;6.87;;;5.50;;
72085;SDS011;64750;52.134;5.424;2023-11-21T05:38:44;6.82;;;5.28;;
72085;SDS011;64750;52.134;5.424;2023-11-21T05:41:10;9.90;;;5.85;;
72085;SDS011;64750;52.134;5.424;2023-11-21T05:43:39;8.77;;;5.35;;
72085;SDS011;64750;52.134;5.424;2023-11-21T05:46:06;6.00;;;5.40;;
72085;SDS011;64750;52.134;5.424;2023-11-21T05:48:33;11.70;;;5.57;;
72085;SDS011;64750;52.134;5.424;2023-11-21T05:51:00;8.27;;;4.97;;
72085;SDS011;64750;52.134;5.424;2023-11-21T05:53:28;7.03;;;5.32;;
72085;SDS011;64750;52.134;5.424;2023-11-21T05:55:54;6.38;;;5.22;;
72085;SDS011;64750;52.134;5.424;2023-11-21T05:58:21;7.22;;;5.65;;
72085;SDS011;64750;52.134;5.424;2023-11-21T06:00:47;6.70;;;5.43;;
72085;SDS011;64750;52.134;5.424;2023-11-21T06:03:14;8.57;;;5.30;;
72085;SDS011;64750;52.134;5.424;2023-11-21T06:05:41;7.88;;;5.47;;
72085;SDS011;64750;52.134;5.424;2023-11-21T06:08:07;11.00;;;5.72;;
72085;SDS011;64750;52.134;5.424;2023-11-21T06:10:34;12.52;;;5.75;;
72085;SDS011;64750;52.134;5.424;2023-11-21T06:13:00;7.70;;;5.77;;
72085;SDS011;64750;52.134;5.424;2023-11-21T06:15:29;7.53;;;5.55;;
72085;SDS011;64750;52.134;5.424;2023-11-21T06:17:56;15.23;;;6.45;;
72085;SDS011;64750;52.134;5.424;2023-11-21T06:20:23;7.10;;;6.40;;
72085;SDS011;64750;52.134;5.424;2023-11-21T06:22:50;11.80;;;5.70;;
72085;SDS011;64750;52.134;5.424;2023-11-21T06:25:17;11.33;;;5.60;;
72085;SDS011;64750;52.134;5.424;2023-11-21T06:27:45;6.28;;;5.57;;
72085;SDS011;64750;52.134;5.424;2023-11-21T06:30:13;10.40;;;5.88;;
72085;SDS011;64750;52.134;5.424;2023-11-21T06:32:41;9.32;;;6.07;;
72085;SDS011;64750;52.134;5.424;2023-11-21T06:35:12;8.27;;;5.35;;
72085;SDS011;64750;52.134;5.424;2023-11-21T06:37:39;9.00;;;6.03;;
72085;SDS011;64750;52.134;5.424;2023-11-21T06:40:06;7.13;;;5.65;;
72085;SDS011;64750;52.134;5.424;2023-11-21T06:42:33;8.07;;;5.97;;
72085;SDS011;64750;52.134;5.424;2023-11-21T06:44:59;10.73;;;6.15;;
72085;SDS011;64750;52.134;5.424;2023-11-21T06:47:29;11.30;;;6.07;;
72085;SDS011;64750;52.134;5.424;2023-11-21T06:49:57;11.40;;;6.03;;
72085;SDS011;64750;52.134;5.424;2023-11-21T06:52:24;7.40;;;5.70;;
72085;SDS011;64750;52.134;5.424;2023-11-21T06:54:50;6.43;;;5.15;;
72085;SDS011;64750;52.134;5.424;2023-11-21T06:57:17;6.55;;;5.07;;
72085;SDS011;64750;52.134;5.424;2023-11-21T06:59:44;7.10;;;5.38;;
72085;SDS011;64750;52.134;5.424;2023-11-21T07:02:10;8.40;;;5.10;;
72085;SDS011;64750;52.134;5.424;2023-11-21T07:04:37;9.02;;;5.55;;
72085;SDS011;64750;52.134;5.424;2023-11-21T07:07:04;5.95;;;5.35;;
72085;SDS011;64750;52.134;5.424;2023-11-21T07:09:33;8.93;;;5.85;;
72085;SDS011;64750;52.134;5.424;2023-11-21T07:11:59;9.77;;;4.80;;
72085;SDS011;64750;52.134;5.424;2023-11-21T07:14:26;6.53;;;4.70;;
72085;SDS011;64750;52.134;5.424;2023-11-21T07:16:52;6.85;;;4.97;;
72085;SDS011;64750;52.134;5.424;2023-11-21T07:19:19;9.13;;;5.50;;
72085;SDS011;64750;52.134;5.424;2023-11-21T07:21:47;6.63;;;5.72;;
72085;SDS011;64750;52.134;5.424;2023-11-21T07:24:17;6.57;;;5.47;;
72085;SDS011;64750;52.134;5.424;2023-11-21T07:26:44;9.13;;;4.73;;
72085;SDS011;64750;52.134;5.424;2023-11-21T07:29:10;10.93;;;5.78;;
72085;SDS011;64750;52.134;5.424;2023-11-21T07:31:37;6.18;;;4.90;;
72085;SDS011;64750;52.134;5.424;2023-11-21T07:34:04;7.28;;;5.28;;
72085;SDS011;64750;52.134;5.424;2023-11-21T07:36:31;8.35;;;5.07;;
72085;SDS011;64750;52.134;5.424;2023-11-21T07:38:57;6.20;;;5.17;;
72085;SDS011;64750;52.134;5.424;2023-11-21T07:41:24;9.90;;;4.78;;
72085;SDS011;64750;52.134;5.424;2023-11-21T07:43:56;10.18;;;5.20;;
72085;SDS011;64750;52.134;5.424;2023-11-21T07:46:23;8.13;;;4.70;;
72085;SDS011;64750;52.134;5.424;2023-11-21T07:48:50;11.02;;;5.55;;
72085;SDS011;64750;52.134;5.424;2023-11-21T07:51:18;7.57;;;4.87;;
72085;SDS011;64750;52.134;5.424;2023-11-21T07:53:45;7.00;;;4.72;;
72085;SDS011;64750;52.134;5.424;2023-11-21T07:56:12;7.00;;;4.90;;
72085;SDS011;64750;52.134;5.424;2023-11-21T07:58:39;6.35;;;4.00;;
72085;SDS011;64750;52.134;5.424;2023-11-21T08:01:05;6.57;;;4.32;;
72085;SDS011;64750;52.134;5.424;2023-11-21T08:03:32;5.57;;;4.03;;
72085;SDS011;64750;52.134;5.424;2023-11-21T08:05:59;12.02;;;4.43;;
72085;SDS011;64750;52.134;5.424;2023-11-21T08:08:26;6.43;;;4.28;;
72085;SDS011;64750;52.134;5.424;2023-11-21T08:10:53;9.20;;;3.97;;
72085;SDS011;64750;52.134;5.424;2023-11-21T08:13:23;9.60;;;4.15;;
72085;SDS011;64750;52.134;5.424;2023-11-21T08:15:50;8.63;;;3.80;;
72085;SDS011;64750;52.134;5.424;2023-11-21T08:18:20;8.50;;;4.40;;
72085;SDS011;64750;52.134;5.424;2023-11-21T08:20:46;11.30;;;4.15;;
72085;SDS011;64750;52.134;5.424;2023-11-21T08:23:15;7.68;;;4.32;;
72085;SDS011;64750;52.134;5.424;2023-11-21T08:25:45;9.40;;;4.20;;
72085;SDS011;64750;52.134;5.424;2023-11-21T08:28:12;9.63;;;4.17;;
72085;SDS011;64750;52.134;5.424;2023-11-21T08:30:40;9.63;;;3.65;;
72085;SDS011;64750;52.134;5.424;2023-11-21T08:33:08;9.57;;;3.70;;
72085;SDS011;64750;52.134;5.424;2023-11-21T08:35:35;8.65;;;3.53;;
72085;SDS011;64750;52.134;5.424;2023-11-21T08:38:02;6.00;;;4.00;;
72085;SDS011;64750;52.134;5.424;2023-11-21T08:40:29;4.17;;;3.33;;
72085;SDS011;64750;52.134;5.424;2023-11-21T08:42:57;5.78;;;4.28;;
72085;SDS011;64750;52.134;5.424;2023-11-21T08:45:25;5.85;;;3.70;;
72085;SDS011;64750;52.134;5.424;2023-11-21T08:47:52;5.65;;;3.88;;
72085;SDS011;64750;52.134;5.424;2023-11-21T08:50:18;10.73;;;3.70;;
72085;SDS011;64750;52.134;5.424;2023-11-21T08:52:46;4.17;;;3.40;;
72085;SDS011;64750;52.134;5.424;2023-11-21T08:55:13;7.18;;;3.95;;
72085;SDS011;64750;52.134;5.424;2023-11-21T08:57:40;7.88;;;4.38;;
72085;SDS011;64750;52.134;5.424;2023-11-21T09:00:09;5.53;;;4.40;;
72085;SDS011;64750;52.134;5.424;2023-11-21T09:02:43;6.43;;;4.45;;
72085;SDS011;64750;52.134;5.424;2023-11-21T09:05:11;9.90;;;4.47;;
72085;SDS011;64750;52.134;5.424;2023-11-21T09:07:40;9.23;;;5.47;;
72085;SDS011;64750;52.134;5.424;2023-11-21T09:10:08;8.32;;;6.10;;
72085;SDS011;64750;52.134;5.424;2023-11-21T09:12:36;6.10;;;4.95;;
72085;SDS011;64750;52.134;5.424;2023-11-21T09:15:04;10.07;;;5.70;;
72085;SDS011;64750;52.134;5.424;2023-11-21T09:17:32;12.43;;;6.63;;
72085;SDS011;64750;52.134;5.424;2023-11-21T09:20:00;9.73;;;6.53;;
72085;SDS011;64750;52.134;5.424;2023-11-21T09:22:29;11.05;;;7.57;;
72085;SDS011;64750;52.134;5.424;2023-11-21T09:24:57;11.52;;;7.13;;
72085;SDS011;64750;52.134;5.424;2023-11-21T09:27:24;11.23;;;6.78;;
72085;SDS011;64750;52.134;5.424;2023-11-21T09:29:52;10.73;;;7.73;;
72085;SDS011;64750;52.134;5.424;2023-11-21T09:32:19;10.73;;;7.05;;
72085;SDS011;64750;52.134;5.424;2023-11-21T09:34:48;12.38;;;7.78;;
72085;SDS011;64750;52.134;5.424;2023-11-21T09:37:15;11.15;;;8.27;;
72085;SDS011;64750;52.134;5.424;2023-11-21T09:39:42;9.95;;;7.70;;
72085;SDS011;64750;52.134;5.424;2023-11-21T09:42:25;11.27;;;7.60;;
72085;SDS011;64750;52.134;5.424;2023-11-21T09:45:21;12.50;;;7.80;;
72085;SDS011;64750;52.134;5.424;2023-11-21T09:48:01;11.48;;;7.22;;
72085;SDS011;64750;52.134;5.424;2023-11-21T09:50:28;10.75;;;7.35;;
72085;SDS011;64750;52.134;5.424;2023-11-21T09:52:55;13.00;;;7.78;;
72085;SDS011;64750;52.134;5.424;2023-11-21T09:55:27;10.83;;;7.27;;
72085;SDS011;64750;52.134;5.424;2023-11-21T09:57:58;11.40;;;7.25;;
72085;SDS011;64750;52.134;5.424;2023-11-21T10:00:24;11.27;;;7.35;;
72085;SDS011;64750;52.134;5.424;2023-11-21T10:02:53;11.30;;;7.05;;
72085;SDS011;64750;52.134;5.424;2023-11-21T10:05:22;10.73;;;7.85;;
72085;SDS011;64750;52.134;5.424;2023-11-21T10:07:52;9.43;;;6.60;;
72085;SDS011;64750;52.134;5.424;2023-11-21T10:10:23;7.85;;;6.40;;
72085;SDS011;64750;52.134;5.424;2023-11-21T10:12:53;10.43;;;5.90;;
72085;SDS011;64750;52.134;5.424;2023-11-21T10:15:21;12.10;;;6.22;;
72085;SDS011;64750;52.134;5.424;2023-11-21T10:17:49;8.43;;;6.10;;
72085;SDS011;64750;52.134;5.424;2023-11-21T10:20:19;9.93;;;5.90;;
72085;SDS011;64750;52.134;5.424;2023-11-21T10:22:46;9.27;;;5.75;;
72085;SDS011;64750;52.134;5.424;2023-11-21T10:25:13;7.78;;;4.82;;
72085;SDS011;64750;52.134;5.424;2023-11-21T10:27:42;5.03;;;4.45;;
72085;SDS011;64750;52.134;5.424;2023-11-21T10:30:09;4.80;;;4.20;;
72085;SDS011;64750;52.134;5.424;2023-11-21T10:32:39;7.23;;;4.43;;
72085;SDS011;64750;52.134;5.424;2023-11-21T10:35:07;6.10;;;5.20;;
72085;SDS011;64750;52.134;5.424;2023-11-21T10:37:36;7.25;;;5.43;;
72085;SDS011;64750;52.134;5.424;2023-11-21T10:40:06;8.95;;;6.22;;
72085;SDS011;64750;52.134;5.424;2023-11-21T10:42:33;6.57;;;5.60;;
72085;SDS011;64750;52.134;5.424;2023-11-21T10:45:00;9.40;;;6.93;;
72085;SDS011;64750;52.134;5.424;2023-11-21T10:47:27;8.27;;;6.07;;
72085;SDS011;64750;52.134;5.424;2023-11-21T10:49:53;8.38;;;6.32;;
72085;SDS011;64750;52.134;5.424;2023-11-21T10:52:20;9.20;;;5.63;;
72085;SDS011;64750;52.134;5.424;2023-11-21T10:54:46;6.03;;;4.75;;
72085;SDS011;64750;52.134;5.424;2023-11-21T10:57:16;5.10;;;4.60;;
72085;SDS011;64750;52.134;5.424;2023-11-21T10:59:47;5.68;;;5.03;;
72085;SDS011;64750;52.134;5.424;2023-11-21T11:02:23;7.00;;;5.10;;
72085;SDS011;64750;52.134;5.424;2023-11-21T11:04:54;7.65;;;5.43;;
72085;SDS011;64750;52.134;5.424;2023-11-21T11:07:25;8.90;;;5.35;;
72085;SDS011;64750;52.134;5.424;2023-11-21T11:09:55;9.57;;;5.30;;
72085;SDS011;64750;52.134;5.424;2023-11-21T11:12:23;8.60;;;5.53;;
72085;SDS011;64750;52.134;5.424;2023-11-21T11:14:51;7.45;;;5.28;;
72085;SDS011;64750;52.134;5.424;2023-11-21T11:17:19;6.30;;;5.68;;
72085;SDS011;64750;52.134;5.424;2023-11-21T11:19:47;8.35;;;5.05;;
72085;SDS011;64750;52.134;5.424;2023-11-21T11:22:27;6.70;;;5.70;;
72085;SDS011;64750;52.134;5.424;2023-11-21T11:28:26;6.70;;;5.75;;
72085;SDS011;64750;52.134;5.424;2023-11-21T11:31:14;8.05;;;5.85;;
72085;SDS011;64750;52.134;5.424;2023-11-21T11:33:55;6.97;;;5.80;;
72085;SDS011;64750;52.134;5.424;2023-11-21T11:36:26;7.87;;;6.10;;
72085;SDS011;64750;52.134;5.424;2023-11-21T11:38:57;7.88;;;6.40;;
72085;SDS011;64750;52.134;5.424;2023-11-21T11:41:25;7.75;;;6.57;;
72085;SDS011;64750;52.134;5.424;2023-11-21T11:43:53;9.45;;;6.00;;
72085;SDS011;64750;52.134;5.424;2023-11-21T11:46:20;8.80;;;6.72;;
72085;SDS011;64750;52.134;5.424;2023-11-21T11:49:02;9.90;;;7.00;;
72085;SDS011;64750;52.134;5.424;2023-11-21T11:51:29;10.75;;;7.13;;
72085;SDS011;64750;52.134;5.424;2023-11-21T11:53:57;10.55;;;7.45;;
72085;SDS011;64750;52.134;5.424;2023-11-21T11:56:25;9.35;;;7.32;;
72085;SDS011;64750;52.134;5.424;2023-11-21T11:58:54;8.70;;;7.40;;
72085;SDS011;64750;52.134;5.424;2023-11-21T12:01:22;11.23;;;8.33;;
72085;SDS011;64750;52.134;5.424;2023-11-21T12:07:00;12.30;;;8.10;;
72085;SDS011;64750;52.134;5.424;2023-11-21T12:09:29;11.68;;;7.45;;
72085;SDS011;64750;52.134;5.424;2023-11-21T12:11:57;12.02;;;8.52;;
72085;SDS011;64750;52.134;5.424;2023-11-21T12:14:24;11.97;;;7.83;;
72085;SDS011;64750;52.134;5.424;2023-11-21T12:16:51;10.95;;;7.60;;
72085;SDS011;64750;52.134;5.424;2023-11-21T12:19:19;9.98;;;7.47;;
72085;SDS011;64750;52.134;5.424;2023-11-21T12:21:47;11.40;;;8.75;;
72085;SDS011;64750;52.134;5.424;2023-11-21T12:24:14;12.85;;;7.75;;
72085;SDS011;64750;52.134;5.424;2023-11-21T12:26:42;10.53;;;8.40;;
72085;SDS011;64750;52.134;5.424;2023-11-21T12:29:10;13.93;;;9.23;;
72085;SDS011;64750;52.134;5.424;2023-11-21T12:31:37;15.13;;;8.45;;
72085;SDS011;64750;52.134;5.424;2023-11-21T12:34:03;13.13;;;8.93;;
72085;SDS011;64750;52.134;5.424;2023-11-21T12:36:30;12.00;;;9.20;;
72085;SDS011;64750;52.134;5.424;2023-11-21T12:38:57;11.93;;;8.67;;
72085;SDS011;64750;52.134;5.424;2023-11-21T12:41:23;11.32;;;9.00;;
72085;SDS011;64750;52.134;5.424;2023-11-21T12:43:50;12.77;;;8.63;;
72085;SDS011;64750;52.134;5.424;2023-11-21T12:46:16;13.25;;;8.35;;
72085;SDS011;64750;52.134;5.424;2023-11-21T12:48:44;12.40;;;8.25;;
72085;SDS011;64750;52.134;5.424;2023-11-21T12:51:12;10.40;;;7.97;;
72085;SDS011;64750;52.134;5.424;2023-11-21T12:53:40;9.15;;;8.05;;
72085;SDS011;64750;52.134;5.424;2023-11-21T12:56:11;11.75;;;8.70;;
72085;SDS011;64750;52.134;5.424;2023-11-21T12:58:38;11.15;;;8.10;;
72085;SDS011;64750;52.134;5.424;2023-11-21T13:01:06;10.25;;;7.88;;
72085;SDS011;64750;52.134;5.424;2023-11-21T13:03:38;10.13;;;7.80;;
72085;SDS011;64750;52.134;5.424;2023-11-21T13:06:06;10.70;;;7.70;;
72085;SDS011;64750;52.134;5.424;2023-11-21T13:08:36;12.00;;;8.20;;
72085;SDS011;64750;52.134;5.424;2023-11-21T13:11:05;11.13;;;7.82;;
72085;SDS011;64750;52.134;5.424;2023-11-21T13:13:32;10.52;;;7.88;;
72085;SDS011;64750;52.134;5.424;2023-11-21T13:16:00;8.80;;;7.80;;
72085;SDS011;64750;52.134;5.424;2023-11-21T13:18:28;10.38;;;6.60;;
72085;SDS011;64750;52.134;5.424;2023-11-21T13:20:55;7.18;;;5.20;;
72085;SDS011;64750;52.134;5.424;2023-11-21T13:23:24;6.20;;;5.10;;
72085;SDS011;64750;52.134;5.424;2023-11-21T13:25:52;7.18;;;4.30;;
72085;SDS011;64750;52.134;5.424;2023-11-21T13:28:30;4.53;;;3.20;;
72085;SDS011;64750;52.134;5.424;2023-11-21T13:31:00;5.05;;;2.67;;
72085;SDS011;64750;52.134;5.424;2023-11-21T13:33:47;2.88;;;2.47;;
72085;SDS011;64750;52.134;5.424;2023-11-21T13:36:22;4.07;;;2.50;;
72085;SDS011;64750;52.134;5.424;2023-11-21T13:38:49;3.53;;;2.58;;
72085;SDS011;64750;52.134;5.424;2023-11-21T13:41:16;3.73;;;2.67;;
72085;SDS011;64750;52.134;5.424;2023-11-21T13:43:44;5.65;;;2.60;;
72085;SDS011;64750;52.134;5.424;2023-11-21T13:46:15;3.30;;;2.95;;
72085;SDS011;64750;52.134;5.424;2023-11-21T13:48:48;4.47;;;3.42;;
72085;SDS011;64750;52.134;5.424;2023-11-21T13:51:22;5.10;;;4.40;;
72085;SDS011;64750;52.134;5.424;2023-11-21T13:53:58;6.67;;;5.43;;
72085;SDS011;64750;52.134;5.424;2023-11-21T13:56:25;5.18;;;4.78;;
72085;SDS011;64750;52.134;5.424;2023-11-21T13:58:54;6.55;;;4.68;;
72085;SDS011;64750;52.134;5.424;2023-11-21T14:01:22;8.75;;;5.40;;
72085;SDS011;64750;52.134;5.424;2023-11-21T14:03:58;8.00;;;7.00;;
72085;SDS011;64750;52.134;5.424;2023-11-21T14:06:46;10.70;;;7.13;;
72085;SDS011;64750;52.134;5.424;2023-11-21T14:09:15;10.63;;;7.15;;
72085;SDS011;64750;52.134;5.424;2023-11-21T14:11:52;8.55;;;7.28;;
72085;SDS011;64750;52.134;5.424;2023-11-21T14:14:21;11.85;;;8.55;;
72085;SDS011;64750;52.134;5.424;2023-11-21T14:16:48;10.80;;;8.10;;
72085;SDS011;64750;52.134;5.424;2023-11-21T14:19:15;11.80;;;8.37;;
72085;SDS011;64750;52.134;5.424;2023-11-21T14:21:44;10.98;;;7.75;;
72085;SDS011;64750;52.134;5.424;2023-11-21T14:24:11;11.75;;;7.75;;
72085;SDS011;64750;52.134;5.424;2023-11-21T14:26:44;10.82;;;7.95;;
72085;SDS011;64750;52.134;5.424;2023-11-21T14:29:17;13.75;;;8.30;;
72085;SDS011;64750;52.134;5.424;2023-11-21T14:31:49;12.47;;;8.23;;
72085;SDS011;64750;52.134;5.424;2023-11-21T14:34:22;13.02;;;8.80;;
72085;SDS011;64750;52.134;5.424;2023-11-21T14:36:49;12.77;;;8.48;;
72085;SDS011;64750;52.134;5.424;2023-11-21T14:39:16;13.77;;;8.63;;
72085;SDS011;64750;52.134;5.424;2023-11-21T14:41:50;13.80;;;9.75;;
72085;SDS011;64750;52.134;5.424;2023-11-21T14:44:18;13.27;;;8.30;;
72085;SDS011;64750;52.134;5.424;2023-11-21T14:46:45;13.63;;;9.05;;
72085;SDS011;64750;52.134;5.424;2023-11-21T14:49:13;14.23;;;9.40;;
72085;SDS011;64750;52.134;5.424;2023-11-21T14:51:46;14.57;;;9.85;;
72085;SDS011;64750;52.134;5.424;2023-11-21T14:54:36;16.40;;;9.93;;
72085;SDS011;64750;52.134;5.424;2023-11-21T14:57:13;16.07;;;10.30;;